Time;durP1;ratioP1;P1;durP2;ratioP2;P2;SDS_P1;SDS_P2;PMS_P1;PMS_P2;Temp;Humidity;BMP_temperature;BMP_pressure;BME280_temperature;BME280_humidity;BME280_pressure;Samples;Min_cycle;Max_cycle;Signal;HPM_P1;HPM_P2
2021/08/29 00:01:55;;;;;;;;;;;13.20;1.00;;;;;;5029966;28;20296;-65
2021/08/29 00:04:21;;;;;;;;;;;13.20;1.00;;;;;;5029441;28;19916;-64
2021/08/29 00:06:46;;;;;;;;;;;13.20;1.00;;;;;;5030329;28;19913;-64
2021/08/29 00:09:12;;;;;;;;;;;13.20;1.00;;;;;;5029638;28;19916;-63
2021/08/29 00:11:37;;;;;;;;;;;13.20;1.00;;;;;;5029911;28;19909;-64
2021/08/29 00:14:03;;;;;;;;;;;13.20;1.00;;;;;;5028824;28;19978;-64
2021/08/29 00:16:29;;;;;;;;;;;13.20;1.00;;;;;;5030453;28;19999;-64
2021/08/29 00:18:54;;;;;;;;;;;13.20;1.00;;;;;;5029022;28;19996;-64
2021/08/29 00:21:20;;;;;;;;;;;13.20;1.00;;;;;;5029453;28;19916;-63
2021/08/29 00:23:45;;;;;;;;;;;13.20;1.00;;;;;;5028620;28;19920;-65
2021/08/29 00:26:11;;;;;;;;;;;13.10;1.00;;;;;;5029915;28;19917;-64
2021/08/29 00:28:36;;;;;;;;;;;13.10;1.00;;;;;;5029478;28;19928;-63
2021/08/29 00:31:02;;;;;;;;;;;13.10;1.00;;;;;;5029410;28;19924;-64
2021/08/29 00:33:27;;;;;;;;;;;13.10;1.00;;;;;;5027786;28;20155;-64
2021/08/29 00:35:53;;;;;;;;;;;13.00;1.00;;;;;;5029837;28;20421;-63
2021/08/29 00:38:19;;;;;;;;;;;13.00;1.00;;;;;;5016120;28;19920;-63
2021/08/29 00:40:46;;;;;;;;;;;13.00;1.00;;;;;;5009809;28;20000;-64
2021/08/29 00:43:11;;;;;;;;;;;13.00;1.00;;;;;;5009057;28;20333;-64
2021/08/29 00:45:37;;;;;;;;;;;13.00;1.00;;;;;;5009800;28;20003;-65
2021/08/29 00:48:05;;;;;;;;;;;13.00;1.00;;;;;;5009452;28;19920;-65
2021/08/29 00:50:30;;;;;;;;;;;13.00;1.00;;;;;;5018151;28;19923;-65
2021/08/29 00:52:56;;;;;;;;;;;12.90;1.00;;;;;;5020325;28;19909;-65
2021/08/29 00:55:22;;;;;;;;;;;12.90;1.00;;;;;;5028897;28;19909;-65
2021/08/29 00:57:47;;;;;;;;;;;13.00;1.00;;;;;;5028897;28;19917;-65
2021/08/29 01:00:13;;;;;;;;;;;12.90;1.00;;;;;;5029503;28;19979;-65
2021/08/29 01:02:39;;;;;;;;;;;12.90;1.00;;;;;;5028310;28;19976;-65
2021/08/29 01:05:19;;;;;;;;;;;12.90;1.00;;;;;;5027591;28;19909;-65
2021/08/29 01:07:45;;;;;;;;;;;12.90;1.00;;;;;;5029068;28;20330;-65
2021/08/29 01:10:12;;;;;;;;;;;12.90;1.00;;;;;;5029465;28;19913;-65
2021/08/29 01:12:38;;;;;;;;;;;12.90;1.00;;;;;;5028141;28;20011;-65
2021/08/29 01:15:05;;;;;;;;;;;12.90;1.00;;;;;;5029408;28;20040;-65
2021/08/29 01:17:32;;;;;;;;;;;12.90;1.00;;;;;;5028433;28;19913;-65
2021/08/29 01:20:04;;;;;;;;;;;12.80;1.00;;;;;;5028549;28;19916;-65
2021/08/29 01:22:31;;;;;;;;;;;12.80;1.00;;;;;;5028192;28;19924;-64
2021/08/29 01:24:58;;;;;;;;;;;12.80;1.00;;;;;;5029234;28;20401;-64
2021/08/29 01:27:34;;;;;;;;;;;12.80;1.00;;;;;;5028698;28;19909;-65
2021/08/29 01:30:00;;;;;;;;;;;12.70;1.00;;;;;;5029306;28;19917;-65
2021/08/29 01:32:25;;;;;;;;;;;12.70;1.00;;;;;;5027517;28;20464;-65
2021/08/29 01:34:51;;;;;;;;;;;12.70;1.00;;;;;;5028616;28;20063;-65
2021/08/29 01:37:17;;;;;;;;;;;12.70;1.00;;;;;;5025311;28;19914;-65
2021/08/29 01:39:43;;;;;;;;;;;12.70;1.00;;;;;;5008925;28;19955;-65
2021/08/29 01:42:09;;;;;;;;;;;12.70;1.00;;;;;;5008391;28;20384;-65
2021/08/29 01:44:34;;;;;;;;;;;12.70;1.00;;;;;;5008803;28;20338;-64
2021/08/29 01:47:00;;;;;;;;;;;12.70;1.00;;;;;;5009001;28;19929;-65
2021/08/29 01:49:26;;;;;;;;;;;12.70;1.00;;;;;;5008542;28;20326;-65
2021/08/29 01:51:52;;;;;;;;;;;12.70;1.00;;;;;;5008674;28;20006;-64
2021/08/29 01:54:17;;;;;;;;;;;12.70;1.00;;;;;;5008909;28;19913;-64
2021/08/29 01:56:56;;;;;;;;;;;12.70;1.00;;;;;;5014927;28;20508;-64
2021/08/29 01:59:22;;;;;;;;;;;12.70;1.00;;;;;;5029569;28;19936;-64
2021/08/29 02:01:47;;;;;;;;;;;12.70;1.00;;;;;;5028498;28;20031;-64
2021/08/29 02:04:13;;;;;;;;;;;12.70;1.00;;;;;;5027837;28;19916;-64
2021/08/29 02:06:42;;;;;;;;;;;12.80;1.00;;;;;;5029001;28;19909;-64
2021/08/29 02:09:09;;;;;;;;;;;12.70;1.00;;;;;;5030343;28;19913;-64
2021/08/29 02:11:37;;;;;;;;;;;12.70;1.00;;;;;;5032720;28;19927;-65
2021/08/29 02:14:04;;;;;;;;;;;12.70;1.00;;;;;;5030666;28;20298;-64
2021/08/29 02:16:34;;;;;;;;;;;12.70;1.00;;;;;;5032547;28;19999;-65
2021/08/29 02:19:00;;;;;;;;;;;12.70;1.00;;;;;;5031511;28;19917;-64
2021/08/29 02:21:26;;;;;;;;;;;12.70;1.00;;;;;;5032968;28;19913;-65
2021/08/29 02:23:52;;;;;;;;;;;12.70;1.00;;;;;;5031146;28;19962;-64
2021/08/29 02:26:18;;;;;;;;;;;12.60;1.00;;;;;;5032346;28;19913;-64
2021/08/29 02:28:43;;;;;;;;;;;12.60;1.00;;;;;;5029308;28;20394;-64
2021/08/29 02:31:09;;;;;;;;;;;12.60;1.00;;;;;;5030621;28;19909;-64
2021/08/29 02:33:35;;;;;;;;;;;12.60;1.00;;;;;;5010841;28;20016;-64
2021/08/29 02:36:01;;;;;;;;;;;12.60;1.00;;;;;;5012554;28;19913;-64
2021/08/29 02:38:27;;;;;;;;;;;12.60;1.00;;;;;;5025473;28;20231;-64
2021/08/29 02:40:57;;;;;;;;;;;12.60;1.00;;;;;;5032165;28;19909;-64
2021/08/29 02:43:24;;;;;;;;;;;12.50;1.00;;;;;;5030640;28;20008;-65
2021/08/29 02:45:50;;;;;;;;;;;12.60;1.00;;;;;;5031913;28;20546;-64
2021/08/29 02:48:15;;;;;;;;;;;12.50;1.00;;;;;;5031211;28;19913;-65
2021/08/29 02:50:41;;;;;;;;;;;12.50;1.00;;;;;;5021142;28;20337;-64
2021/08/29 02:53:06;;;;;;;;;;;12.50;1.00;;;;;;5011411;28;20012;-64
2021/08/29 02:55:32;;;;;;;;;;;12.50;1.00;;;;;;5012012;28;20283;-65
2021/08/29 02:58:02;;;;;;;;;;;12.50;1.00;;;;;;5026605;28;19924;-64
2021/08/29 03:00:28;;;;;;;;;;;12.50;1.00;;;;;;5031254;28;20301;-65
2021/08/29 03:02:54;;;;;;;;;;;12.50;1.00;;;;;;5030496;28;19909;-65
2021/08/29 03:05:19;;;;;;;;;;;12.50;1.00;;;;;;5031111;28;19992;-65
2021/08/29 03:07:45;;;;;;;;;;;12.50;1.00;;;;;;5030021;28;20285;-65
2021/08/29 03:10:11;;;;;;;;;;;12.40;1.00;;;;;;5031387;28;19913;-64
2021/08/29 03:12:37;;;;;;;;;;;12.50;1.00;;;;;;5030087;28;20012;-64
2021/08/29 03:15:04;;;;;;;;;;;12.50;1.00;;;;;;5031348;28;20011;-64
2021/08/29 03:17:30;;;;;;;;;;;12.40;1.00;;;;;;5031020;28;19913;-65
2021/08/29 03:19:55;;;;;;;;;;;12.50;1.00;;;;;;5030795;28;19935;-64
2021/08/29 03:22:21;;;;;;;;;;;12.50;1.00;;;;;;5030176;28;19913;-65
2021/08/29 03:24:47;;;;;;;;;;;12.50;1.00;;;;;;5031160;28;19967;-65
2021/08/29 03:27:12;;;;;;;;;;;12.50;1.00;;;;;;5031057;28;19917;-65
2021/08/29 03:29:38;;;;;;;;;;;12.50;1.00;;;;;;5028580;22;19944;-63
2021/08/29 03:32:04;;;;;;;;;;;12.50;1.00;;;;;;5007108;28;19924;-64
2021/08/29 03:34:29;;;;;;;;;;;12.50;1.00;;;;;;5001880;28;20025;-65
2021/08/29 03:36:55;;;;;;;;;;;12.50;1.00;;;;;;5010795;28;19976;-64
2021/08/29 03:39:22;;;;;;;;;;;12.50;1.00;;;;;;5003032;28;20265;-64
2021/08/29 03:41:48;;;;;;;;;;;12.50;1.00;;;;;;5010029;28;19913;-64
2021/08/29 03:44:14;;;;;;;;;;;12.50;1.00;;;;;;5009986;28;20489;-65
2021/08/29 03:46:40;;;;;;;;;;;12.50;1.00;;;;;;5010682;28;19940;-63
2021/08/29 03:49:06;;;;;;;;;;;12.50;1.00;;;;;;5010032;28;19917;-63
2021/08/29 03:51:37;;;;;;;;;;;12.50;1.00;;;;;;5019727;28;20022;-64
2021/08/29 03:54:04;;;;;;;;;;;12.50;1.00;;;;;;5018390;28;19967;-64
2021/08/29 03:56:30;;;;;;;;;;;12.40;1.00;;;;;;5003940;28;19992;-64
2021/08/29 03:58:56;;;;;;;;;;;12.40;1.00;;;;;;5014898;28;20010;-64
2021/08/29 04:01:21;;;;;;;;;;;12.40;1.00;;;;;;5015481;28;19909;-63
2021/08/29 04:03:47;;;;;;;;;;;12.40;1.00;;;;;;5013627;28;20377;-63
2021/08/29 04:06:13;;;;;;;;;;;12.40;1.00;;;;;;5013221;28;19913;-64
2021/08/29 04:08:42;;;;;;;;;;;12.40;1.00;;;;;;4999338;28;19913;-64
2021/08/29 04:11:08;;;;;;;;;;;12.50;1.00;;;;;;4992683;28;20000;-63
2021/08/29 04:13:35;;;;;;;;;;;12.40;1.00;;;;;;5004542;28;20021;-63
2021/08/29 04:16:04;;;;;;;;;;;12.40;1.00;;;;;;5010557;28;19917;-63
2021/08/29 04:18:36;;;;;;;;;;;12.40;1.00;;;;;;5009211;28;19924;-63
2021/08/29 04:21:02;;;;;;;;;;;12.40;1.00;;;;;;5010040;28;19914;-63
2021/08/29 04:23:28;;;;;;;;;;;12.40;1.00;;;;;;5011780;28;19922;-62
2021/08/29 04:25:53;;;;;;;;;;;12.40;1.00;;;;;;5029385;28;19913;-62
2021/08/29 04:28:19;;;;;;;;;;;12.40;1.00;;;;;;5024462;28;19921;-63
2021/08/29 04:30:45;;;;;;;;;;;12.40;1.00;;;;;;5009645;28;19924;-63
2021/08/29 04:33:10;;;;;;;;;;;12.40;1.00;;;;;;5008178;28;19914;-63
2021/08/29 04:35:36;;;;;;;;;;;12.40;1.00;;;;;;5009836;28;19913;-63
2021/08/29 04:38:01;;;;;;;;;;;12.40;1.00;;;;;;5019228;28;19913;-63
2021/08/29 04:40:27;;;;;;;;;;;12.40;1.00;;;;;;5029676;28;19909;-61
2021/08/29 04:42:52;;;;;;;;;;;12.40;1.00;;;;;;5027898;28;19909;-62
2021/08/29 04:45:18;;;;;;;;;;;12.40;1.00;;;;;;5028497;28;19963;-63
2021/08/29 04:47:43;;;;;;;;;;;12.40;1.00;;;;;;5029119;28;20281;-64
2021/08/29 04:50:09;;;;;;;;;;;12.40;1.00;;;;;;5022896;28;19917;-64
2021/08/29 04:52:34;;;;;;;;;;;12.30;1.00;;;;;;5008494;28;19913;-64
2021/08/29 04:55:00;;;;;;;;;;;12.30;1.00;;;;;;5008771;28;20070;-64
2021/08/29 04:57:25;;;;;;;;;;;12.30;1.00;;;;;;5009078;28;19916;-64
2021/08/29 04:59:51;;;;;;;;;;;12.30;1.00;;;;;;5008897;28;19921;-63
2021/08/29 05:02:16;;;;;;;;;;;12.30;1.00;;;;;;5008314;28;20388;-64
2021/08/29 05:04:42;;;;;;;;;;;12.30;1.00;;;;;;5008863;28;19909;-64
2021/08/29 05:07:07;;;;;;;;;;;12.30;1.00;;;;;;5008856;28;20338;-64
2021/08/29 05:09:33;;;;;;;;;;;12.30;1.00;;;;;;5009163;28;19910;-64
2021/08/29 05:11:58;;;;;;;;;;;12.30;1.00;;;;;;5008924;28;19913;-64
2021/08/29 05:14:24;;;;;;;;;;;12.30;1.00;;;;;;5008478;28;20250;-64
2021/08/29 05:16:49;;;;;;;;;;;12.30;1.00;;;;;;5009461;28;19976;-64
2021/08/29 05:19:15;;;;;;;;;;;12.30;1.00;;;;;;5007771;28;20040;-64
2021/08/29 05:21:40;;;;;;;;;;;12.30;1.00;;;;;;5008864;28;20028;-64
2021/08/29 05:24:06;;;;;;;;;;;12.30;1.00;;;;;;5016116;28;20350;-64
2021/08/29 05:26:31;;;;;;;;;;;12.30;1.00;;;;;;5020795;28;19909;-63
2021/08/29 05:28:57;;;;;;;;;;;12.40;1.00;;;;;;5019835;28;20429;-64
2021/08/29 05:31:22;;;;;;;;;;;12.40;1.00;;;;;;5024790;28;19924;-63
2021/08/29 05:33:48;;;;;;;;;;;12.40;1.00;;;;;;5007753;28;19917;-64
2021/08/29 05:36:13;;;;;;;;;;;12.40;1.00;;;;;;5004831;28;20000;-63
2021/08/29 05:38:39;;;;;;;;;;;12.40;1.00;;;;;;5023062;28;19909;-64
2021/08/29 05:41:04;;;;;;;;;;;12.40;1.00;;;;;;5028263;28;19910;-64
2021/08/29 05:43:30;;;;;;;;;;;12.40;1.00;;;;;;5027436;28;19956;-64
2021/08/29 05:45:55;;;;;;;;;;;12.50;1.00;;;;;;5012114;28;19959;-64
2021/08/29 05:48:21;;;;;;;;;;;12.50;1.00;;;;;;5013775;28;20332;-63
2021/08/29 05:50:46;;;;;;;;;;;12.50;1.00;;;;;;5013310;28;19916;-64
2021/08/29 05:53:12;;;;;;;;;;;12.40;1.00;;;;;;5012402;28;20003;-64
2021/08/29 05:55:37;;;;;;;;;;;12.50;1.00;;;;;;5012329;28;19967;-64
2021/08/29 05:58:03;;;;;;;;;;;12.50;1.00;;;;;;5012119;28;19914;-64
2021/08/29 06:00:28;;;;;;;;;;;12.50;1.00;;;;;;5012631;28;19917;-63
2021/08/29 06:02:54;;;;;;;;;;;12.50;1.00;;;;;;5012022;28;20025;-64
2021/08/29 06:05:19;;;;;;;;;;;12.50;1.00;;;;;;5011557;28;19983;-65
2021/08/29 06:07:45;;;;;;;;;;;12.60;1.00;;;;;;5012416;28;20377;-64
2021/08/29 06:10:12;;;;;;;;;;;12.60;1.00;;;;;;5012411;28;19962;-64
2021/08/29 06:12:37;;;;;;;;;;;12.60;1.00;;;;;;5011508;28;20687;-64
2021/08/29 06:15:04;;;;;;;;;;;12.70;1.00;;;;;;5012306;28;20070;-64
2021/08/29 06:17:29;;;;;;;;;;;12.70;1.00;;;;;;5011500;28;20515;-64
2021/08/29 06:19:54;;;;;;;;;;;12.80;1.00;;;;;;5011900;28;19909;-63
2021/08/29 06:22:20;;;;;;;;;;;12.80;1.00;;;;;;5011907;28;20664;-64
2021/08/29 06:24:45;;;;;;;;;;;12.80;1.00;;;;;;5025034;28;19919;-63
2021/08/29 06:27:11;;;;;;;;;;;12.80;1.00;;;;;;5022706;28;19913;-62
2021/08/29 06:29:37;;;;;;;;;;;12.90;1.00;;;;;;5022705;28;20401;-64
2021/08/29 06:32:02;;;;;;;;;;;12.80;1.00;;;;;;5021959;28;19917;-63
2021/08/29 06:34:28;;;;;;;;;;;12.80;1.00;;;;;;5008838;28;19918;-64
2021/08/29 06:36:53;;;;;;;;;;;12.80;1.00;;;;;;5012247;28;19905;-64
2021/08/29 06:39:19;;;;;;;;;;;12.80;1.00;;;;;;5031419;28;19951;-63
2021/08/29 06:41:44;;;;;;;;;;;12.80;1.00;;;;;;5031076;28;20298;-64
2021/08/29 06:44:10;;;;;;;;;;;12.80;1.00;;;;;;5025414;28;19914;-63
2021/08/29 06:46:35;;;;;;;;;;;12.80;1.00;;;;;;5011415;28;19914;-64
2021/08/29 06:49:01;;;;;;;;;;;12.80;1.00;;;;;;5010835;28;19914;-64
2021/08/29 06:51:26;;;;;;;;;;;12.80;1.00;;;;;;5011670;28;19914;-62
2021/08/29 06:53:52;;;;;;;;;;;12.80;1.00;;;;;;5010684;28;19924;-63
2021/08/29 06:56:17;;;;;;;;;;;12.80;1.00;;;;;;5011783;28;20398;-64
2021/08/29 06:58:43;;;;;;;;;;;12.80;1.00;;;;;;5011216;28;19968;-63
2021/08/29 07:01:08;;;;;;;;;;;12.90;1.00;;;;;;5011673;28;19909;-63
2021/08/29 07:03:33;;;;;;;;;;;12.90;1.00;;;;;;5009948;28;19918;-62
2021/08/29 07:05:59;;;;;;;;;;;13.00;1.00;;;;;;5010941;28;19929;-62
2021/08/29 07:08:24;;;;;;;;;;;13.10;1.00;;;;;;5011623;28;19909;-64
2021/08/29 07:10:50;;;;;;;;;;;13.10;1.00;;;;;;5011365;28;19952;-64
2021/08/29 07:13:15;;;;;;;;;;;13.20;1.00;;;;;;5010414;28;19913;-63
2021/08/29 07:15:41;;;;;;;;;;;13.20;1.00;;;;;;5010866;28;19910;-64
2021/08/29 07:18:06;;;;;;;;;;;13.30;1.00;;;;;;5010997;28;19915;-63
2021/08/29 07:20:32;;;;;;;;;;;13.30;1.00;;;;;;5010737;28;19913;-64
2021/08/29 07:22:57;;;;;;;;;;;13.30;1.00;;;;;;5010604;28;19913;-64
2021/08/29 07:25:23;;;;;;;;;;;13.30;1.00;;;;;;5029509;28;19986;-64
2021/08/29 07:27:48;;;;;;;;;;;13.40;1.00;;;;;;5029375;28;19984;-64
2021/08/29 07:30:14;;;;;;;;;;;13.50;1.00;;;;;;5010863;28;19921;-64
2021/08/29 07:32:39;;;;;;;;;;;13.50;1.00;;;;;;5009762;28;20319;-64
2021/08/29 07:35:05;;;;;;;;;;;13.50;1.00;;;;;;5010556;28;19967;-63
2021/08/29 07:37:31;;;;;;;;;;;13.60;1.00;;;;;;5016216;28;19979;-64
2021/08/29 07:39:56;;;;;;;;;;;13.70;1.00;;;;;;5030345;28;19916;-64
2021/08/29 07:42:22;;;;;;;;;;;13.80;1.00;;;;;;5028937;28;20082;-63
2021/08/29 07:44:48;;;;;;;;;;;13.90;1.00;;;;;;5018239;28;19909;-61
2021/08/29 07:47:14;;;;;;;;;;;14.00;1.00;;;;;;5009140;28;19932;-63
2021/08/29 07:49:39;;;;;;;;;;;14.10;1.00;;;;;;5007592;28;19920;-63
2021/08/29 07:52:05;;;;;;;;;;;14.20;1.00;;;;;;5014501;28;20013;-62
2021/08/29 07:54:31;;;;;;;;;;;14.30;1.00;;;;;;5016897;28;20770;-63
2021/08/29 07:56:56;;;;;;;;;;;14.40;1.00;;;;;;5010238;28;19944;-64
2021/08/29 07:59:22;;;;;;;;;;;14.40;1.00;;;;;;5009733;28;19914;-64
2021/08/29 08:01:47;;;;;;;;;;;14.50;1.00;;;;;;5009588;28;19914;-64
2021/08/29 08:04:12;;;;;;;;;;;14.60;1.00;;;;;;5008731;28;20396;-65
2021/08/29 08:06:38;;;;;;;;;;;14.70;1.00;;;;;;5009437;28;20008;-63
2021/08/29 08:09:03;;;;;;;;;;;14.80;1.00;;;;;;5010046;28;19909;-63
2021/08/29 08:11:29;;;;;;;;;;;14.90;1.00;;;;;;5010067;28;19967;-64
2021/08/29 08:13:54;;;;;;;;;;;14.80;1.00;;;;;;5008733;28;20313;-65
2021/08/29 08:16:20;;;;;;;;;;;14.90;1.00;;;;;;5009746;28;19966;-64
2021/08/29 08:18:45;;;;;;;;;;;14.90;1.00;;;;;;5008828;28;19995;-64
2021/08/29 08:21:11;;;;;;;;;;;15.00;1.00;;;;;;5009593;28;20359;-64
2021/08/29 08:23:36;;;;;;;;;;;15.10;1.00;;;;;;5012964;28;20362;-64
2021/08/29 08:26:02;;;;;;;;;;;15.30;1.00;;;;;;5029415;28;19909;-64
2021/08/29 08:28:28;;;;;;;;;;;15.60;1.00;;;;;;5022520;28;20370;-62
2021/08/29 08:30:53;;;;;;;;;;;15.90;1.00;;;;;;5010039;28;20351;-63
2021/08/29 08:33:19;;;;;;;;;;;16.10;99.90;;;;;;5008208;28;19921;-63
2021/08/29 08:35:44;;;;;;;;;;;16.40;45.40;;;;;;5009273;28;19917;-64
2021/08/29 08:38:10;;;;;;;;;;;16.80;1.00;;;;;;5019817;28;19917;-65
2021/08/29 08:40:40;;;;;;;;;;;17.10;99.90;;;;;;5029107;28;20285;-64
2021/08/29 08:43:05;;;;;;;;;;;17.10;99.90;;;;;;5028384;28;19909;-64
2021/08/29 08:45:31;;;;;;;;;;;17.10;1.00;;;;;;5012974;28;19932;-63
2021/08/29 08:47:59;;;;;;;;;;;16.90;99.90;;;;;;5008695;28;20374;-64
2021/08/29 08:50:25;;;;;;;;;;;16.60;1.00;;;;;;5008727;28;19909;-64
2021/08/29 08:52:51;;;;;;;;;;;16.50;99.90;;;;;;5008418;28;19976;-64
2021/08/29 08:55:16;;;;;;;;;;;16.50;46.80;;;;;;5008843;28;20017;-64
2021/08/29 08:57:42;;;;;;;;;;;16.50;1.00;;;;;;5008575;28;19909;-64
2021/08/29 09:00:08;;;;;;;;;;;16.50;1.00;;;;;;5009018;28;19909;-64
2021/08/29 09:02:33;;;;;;;;;;;16.60;1.00;;;;;;5007387;28;20060;-63
2021/08/29 09:04:59;;;;;;;;;;;16.40;99.90;;;;;;5008555;28;19924;-64
2021/08/29 09:07:25;;;;;;;;;;;16.50;1.00;;;;;;5009431;28;19913;-64
2021/08/29 09:09:50;;;;;;;;;;;16.70;1.00;;;;;;5009110;28;19909;-64
2021/08/29 09:12:17;;;;;;;;;;;17.10;1.00;;;;;;5008384;28;19910;-63
2021/08/29 09:14:46;;;;;;;;;;;17.70;1.00;;;;;;5008608;28;20028;-63
2021/08/29 09:17:24;;;;;;;;;;;18.30;99.90;;;;;;5008441;28;20401;-62
2021/08/29 09:19:50;;;;;;;;;;;18.50;99.90;;;;;;5008741;28;19917;-64
2021/08/29 09:22:24;;;;;;;;;;;18.50;99.90;;;;;;5008304;28;19909;-64
2021/08/29 09:24:50;;;;;;;;;;;18.50;68.70;;;;;;5022649;28;19971;-63
2021/08/29 09:27:15;;;;;;;;;;;18.30;1.00;;;;;;5020570;28;19920;-63
2021/08/29 09:29:42;;;;;;;;;;;18.20;99.90;;;;;;5020095;28;19929;-63
2021/08/29 09:32:08;;;;;;;;;;;18.10;99.90;;;;;;5018157;28;19909;-63
2021/08/29 09:34:33;;;;;;;;;;;18.00;99.90;;;;;;5007840;28;19914;-63
2021/08/29 09:36:59;;;;;;;;;;;17.90;99.90;;;;;;5009640;28;19921;-63
2021/08/29 09:39:25;;;;;;;;;;;18.00;99.90;;;;;;5027740;28;20222;-62
2021/08/29 09:42:00;;;;;;;;;;;18.00;99.90;;;;;;5027056;28;19975;-62
2021/08/29 09:44:31;;;;;;;;;;;18.10;1.00;;;;;;5004620;28;20271;-62
2021/08/29 09:47:01;;;;;;;;;;;18.20;1.00;;;;;;4984191;28;20294;-62
2021/08/29 09:49:28;;;;;;;;;;;18.20;1.00;;;;;;5002947;28;20375;-63
2021/08/29 09:51:58;;;;;;;;;;;18.40;1.00;;;;;;5005255;28;19943;-63
2021/08/29 09:54:31;;;;;;;;;;;18.50;99.90;;;;;;5003708;28;20337;-63
2021/08/29 09:56:57;;;;;;;;;;;18.60;99.90;;;;;;5005748;28;20298;-63
2021/08/29 09:59:57;;;;;;;;;;;18.60;99.90;;;;;;5004969;28;19910;-62
2021/08/29 10:02:27;;;;;;;;;;;18.70;99.90;;;;;;4982348;28;19918;-63
2021/08/29 10:05:11;;;;;;;;;;;19.00;99.90;;;;;;5000938;28;20461;-63
2021/08/29 10:07:37;;;;;;;;;;;19.50;99.90;;;;;;5005630;28;19909;-63
2021/08/29 10:10:21;;;;;;;;;;;20.30;1.00;;;;;;5005656;28;19964;-63
2021/08/29 10:12:47;;;;;;;;;;;21.10;1.00;;;;;;5004336;28;19910;-64
2021/08/29 10:15:13;;;;;;;;;;;22.30;1.00;;;;;;5005269;28;20314;-63
2021/08/29 10:17:39;;;;;;;;;;;22.90;1.00;;;;;;5005099;28;19913;-63
2021/08/29 10:20:06;;;;;;;;;;;22.70;99.90;;;;;;5005519;28;19914;-62
2021/08/29 10:22:33;;;;;;;;;;;22.30;99.90;;;;;;5005251;28;19910;-64
2021/08/29 10:24:59;;;;;;;;;;;22.00;99.90;;;;;;5019949;28;20008;-64
2021/08/29 10:27:25;;;;;;;;;;;22.10;99.90;;;;;;5024756;28;20270;-64
2021/08/29 10:29:51;;;;;;;;;;;22.20;99.90;;;;;;5008645;28;19944;-64
2021/08/29 10:32:18;;;;;;;;;;;22.00;99.90;;;;;;5008164;28;20526;-64
2021/08/29 10:34:44;;;;;;;;;;;21.80;99.90;;;;;;5008930;28;19913;-63
2021/08/29 10:37:10;;;;;;;;;;;22.00;99.90;;;;;;5011350;28;19925;-63
2021/08/29 10:39:36;;;;;;;;;;;22.10;99.90;;;;;;5009474;28;19956;-62
2021/08/29 10:42:02;;;;;;;;;;;22.20;99.90;;;;;;5010602;28;20063;-62
2021/08/29 10:44:28;;;;;;;;;;;21.70;99.90;;;;;;5010567;28;20414;-64
2021/08/29 10:46:54;;;;;;;;;;;21.50;99.90;;;;;;5011406;28;20028;-63
2021/08/29 10:49:20;;;;;;;;;;;20.90;99.90;;;;;;5017464;28;19917;-64
2021/08/29 10:51:46;;;;;;;;;;;20.60;99.90;;;;;;5019863;28;19916;-63
2021/08/29 10:54:13;;;;;;;;;;;20.60;99.90;;;;;;5025164;28;19916;-63
2021/08/29 10:56:40;;;;;;;;;;;20.80;99.90;;;;;;5031202;28;19913;-64
2021/08/29 10:59:12;;;;;;;;;;;21.30;99.90;;;;;;5028649;28;19959;-62
2021/08/29 11:01:38;;;;;;;;;;;21.40;99.90;;;;;;5030792;28;20373;-63
2021/08/29 11:04:22;;;;;;;;;;;21.50;99.90;;;;;;5029418;28;20349;-63
2021/08/29 11:06:47;;;;;;;;;;;21.50;99.90;;;;;;5030788;28;19925;-63
2021/08/29 11:09:31;;;;;;;;;;;21.50;99.90;;;;;;5030790;28;19920;-61
2021/08/29 11:11:56;;;;;;;;;;;21.40;99.90;;;;;;5030265;28;19913;-64
2021/08/29 11:14:44;;;;;;;;;;;21.50;99.90;;;;;;5030501;28;19913;-63
2021/08/29 11:17:09;;;;;;;;;;;21.80;99.90;;;;;;5030887;28;19967;-63
2021/08/29 11:19:38;;;;;;;;;;;23.00;99.90;;;;;;5029856;28;20366;-63
2021/08/29 11:22:06;;;;;;;;;;;23.70;99.90;;;;;;5030094;28;19913;-63
2021/08/29 11:24:50;;;;;;;;;;;24.20;99.90;;;;;;5019361;28;20253;-64
2021/08/29 11:27:38;;;;;;;;;;;24.90;99.90;;;;;;5010435;28;20351;-64
2021/08/29 11:30:10;;;;;;;;;;;25.20;99.90;;;;;;5009365;28;19917;-64
2021/08/29 11:32:39;;;;;;;;;;;25.20;99.90;;;;;;5009508;28;20618;-64
2021/08/29 11:35:12;;;;;;;;;;;25.10;99.90;;;;;;5010151;28;19914;-63
2021/08/29 11:37:38;;;;;;;;;;;24.90;99.90;;;;;;5010617;28;19996;-63
2021/08/29 11:40:05;;;;;;;;;;;24.20;99.90;;;;;;5010458;28;19910;-64
2021/08/29 11:42:31;;;;;;;;;;;23.60;99.90;;;;;;5006839;28;20008;-63
2021/08/29 11:44:57;;;;;;;;;;;23.30;99.90;;;;;;5010657;28;19996;-62
2021/08/29 11:47:23;;;;;;;;;;;23.00;99.90;;;;;;5010008;28;19918;-63
2021/08/29 11:49:53;;;;;;;;;;;22.90;99.90;;;;;;5010743;28;20442;-64
2021/08/29 11:52:29;;;;;;;;;;;22.70;99.90;;;;;;5009801;28;19917;-62
2021/08/29 11:55:12;;;;;;;;;;;22.40;99.90;;;;;;5010492;28;19920;-63
2021/08/29 11:57:47;;;;;;;;;;;22.20;99.90;;;;;;5009400;28;19913;-63
2021/08/29 12:00:13;;;;;;;;;;;21.80;99.90;;;;;;5010554;28;20365;-62
2021/08/29 12:02:42;;;;;;;;;;;21.70;99.90;;;;;;5006525;28;19923;-64
2021/08/29 12:05:12;;;;;;;;;;;21.20;99.90;;;;;;5009476;28;19913;-64
2021/08/29 12:07:38;;;;;;;;;;;20.80;99.90;;;;;;5009675;28;19909;-64
2021/08/29 12:10:05;;;;;;;;;;;20.80;99.90;;;;;;5009907;28;19952;-63
2021/08/29 12:12:31;;;;;;;;;;;20.90;99.90;;;;;;5004471;28;20497;-64
2021/08/29 12:14:56;;;;;;;;;;;21.00;99.90;;;;;;5009707;28;19913;-64
2021/08/29 12:17:23;;;;;;;;;;;21.20;99.90;;;;;;5009777;28;19910;-63
2021/08/29 12:19:51;;;;;;;;;;;21.40;99.90;;;;;;5009309;28;20001;-63
2021/08/29 12:22:17;;;;;;;;;;;21.50;99.90;;;;;;5008704;28;20379;-64
2021/08/29 12:24:43;;;;;;;;;;;21.60;99.90;;;;;;5021386;28;19917;-62
2021/08/29 12:27:10;;;;;;;;;;;21.80;99.90;;;;;;5021896;28;19913;-64
2021/08/29 12:29:52;;;;;;;;;;;21.80;99.90;;;;;;5020271;28;19917;-64
2021/08/29 12:32:18;;;;;;;;;;;21.70;99.90;;;;;;5017414;28;20028;-63
2021/08/29 12:35:10;;;;;;;;;;;21.30;99.90;;;;;;5009609;28;19956;-62
2021/08/29 12:37:43;;;;;;;;;;;20.90;99.90;;;;;;5008374;28;19996;-62
2021/08/29 12:40:10;;;;;;;;;;;20.70;99.90;;;;;;5006934;28;19975;-63
2021/08/29 12:42:39;;;;;;;;;;;20.80;99.90;;;;;;5008543;28;19986;-63
2021/08/29 12:45:06;;;;;;;;;;;20.90;99.90;;;;;;5009404;28;19979;-63
2021/08/29 12:47:32;;;;;;;;;;;20.80;99.90;;;;;;5008985;28;20000;-62
2021/08/29 12:49:58;;;;;;;;;;;20.60;99.90;;;;;;5009685;28;20008;-63
2021/08/29 12:52:29;;;;;;;;;;;20.30;99.90;;;;;;5008339;28;20331;-61
2021/08/29 12:54:55;;;;;;;;;;;20.00;99.90;;;;;;5009388;28;20376;-63
2021/08/29 12:57:22;;;;;;;;;;;20.00;99.90;;;;;;5008938;28;19963;-63
2021/08/29 12:59:50;;;;;;;;;;;19.90;99.90;;;;;;5009316;28;19920;-64
2021/08/29 13:02:16;;;;;;;;;;;19.90;99.90;;;;;;5007922;28;19921;-64
2021/08/29 13:04:45;;;;;;;;;;;20.00;99.90;;;;;;5008865;28;19913;-62
2021/08/29 13:07:10;;;;;;;;;;;20.20;99.90;;;;;;5009185;28;19943;-64
2021/08/29 13:09:36;;;;;;;;;;;20.40;99.90;;;;;;5006819;28;20313;-62
2021/08/29 13:12:02;;;;;;;;;;;20.70;99.90;;;;;;5005279;28;19909;-63
2021/08/29 13:14:29;;;;;;;;;;;20.90;99.90;;;;;;5008553;28;20001;-63
2021/08/29 13:16:54;;;;;;;;;;;21.10;99.90;;;;;;5007936;28;19936;-64
2021/08/29 13:19:26;;;;;;;;;;;21.40;99.90;;;;;;5008541;28;19910;-63
2021/08/29 13:21:58;;;;;;;;;;;21.50;99.90;;;;;;5008324;28;19913;-63
2021/08/29 13:24:27;;;;;;;;;;;21.60;99.90;;;;;;5007896;28;19917;-63
2021/08/29 13:26:53;;;;;;;;;;;21.50;99.90;;;;;;4998969;28;20003;-64
2021/08/29 13:29:19;;;;;;;;;;;21.40;99.90;;;;;;5000585;28;20373;-63
2021/08/29 13:31:45;;;;;;;;;;;21.20;99.90;;;;;;4996747;28;19910;-63
2021/08/29 13:34:11;;;;;;;;;;;21.00;99.90;;;;;;4997368;28;19960;-63
2021/08/29 13:36:47;;;;;;;;;;;20.70;99.90;;;;;;5007130;28;19999;-64
2021/08/29 13:39:14;;;;;;;;;;;20.50;99.90;;;;;;5028330;28;20011;-64
2021/08/29 13:41:41;;;;;;;;;;;20.30;99.90;;;;;;5028723;28;20009;-64
2021/08/29 13:44:12;;;;;;;;;;;20.00;99.90;;;;;;5027015;28;19909;-64
2021/08/29 13:46:37;;;;;;;;;;;19.90;99.90;;;;;;5029267;28;19931;-63
2021/08/29 13:49:03;;;;;;;;;;;19.90;99.90;;;;;;5027830;28;19913;-61
2021/08/29 13:51:28;;;;;;;;;;;19.80;99.90;;;;;;5019764;28;19913;-63
2021/08/29 13:53:55;;;;;;;;;;;19.70;1.00;;;;;;5019826;28;19913;-63
2021/08/29 13:56:22;;;;;;;;;;;19.60;1.00;;;;;;5028533;28;20008;-63
2021/08/29 13:58:47;;;;;;;;;;;19.40;1.00;;;;;;5028489;28;20342;-62
2021/08/29 14:01:13;;;;;;;;;;;19.30;1.00;;;;;;5028497;28;19941;-62
2021/08/29 14:03:38;;;;;;;;;;;19.10;1.00;;;;;;5027071;28;20223;-61
2021/08/29 14:06:04;;;;;;;;;;;19.00;1.00;;;;;;5031256;28;20335;-64
2021/08/29 14:08:34;;;;;;;;;;;18.90;1.00;;;;;;5032235;28;19957;-63
2021/08/29 14:11:00;;;;;;;;;;;18.90;99.90;;;;;;5032390;28;20678;-63
2021/08/29 14:13:25;;;;;;;;;;;18.90;1.00;;;;;;5030561;28;19960;-61
2021/08/29 14:15:52;;;;;;;;;;;18.90;99.90;;;;;;5032077;28;20019;-62
2021/08/29 14:18:17;;;;;;;;;;;18.80;1.00;;;;;;5031476;28;20388;-63
2021/08/29 14:20:43;;;;;;;;;;;18.80;99.90;;;;;;5030311;28;19913;-64
2021/08/29 14:23:08;;;;;;;;;;;18.70;1.00;;;;;;5011402;28;20008;-63
2021/08/29 14:25:34;;;;;;;;;;;18.60;1.00;;;;;;5014567;28;19918;-63